createdAt,value
2022-09-12T00:02:21.237Z,6.60
2022-09-12T00:04:56.233Z,8.30
2022-09-12T00:07:31.144Z,8.50
2022-09-12T00:10:06.632Z,6.30
2022-09-12T00:12:42.086Z,6.40
2022-09-12T00:15:17.916Z,6.00
2022-09-12T00:17:51.320Z,6.00
2022-09-12T00:20:24.523Z,7.50
2022-09-12T00:22:57.800Z,7.80
2022-09-12T00:25:31.829Z,7.00
2022-09-12T00:28:04.982Z,7.00
2022-09-12T00:30:41.882Z,5.80
2022-09-12T00:33:15.575Z,5.90
2022-09-12T00:35:50.935Z,5.70
2022-09-12T00:38:24.322Z,5.70
2022-09-12T00:40:57.451Z,7.50
2022-09-12T00:43:43.102Z,6.50
2022-09-12T00:46:45.370Z,6.60
2022-09-12T00:52:12.793Z,6.30
2022-09-12T00:54:57.569Z,6.60
2022-09-12T00:57:40.077Z,6.50
2022-09-12T01:00:18.081Z,6.40
2022-09-12T01:03:04.578Z,6.60
2022-09-12T01:05:45.164Z,6.70
2022-09-12T01:08:19.443Z,6.80
2022-09-12T01:10:53.172Z,7.10
2022-09-12T01:13:26.892Z,7.40
2022-09-12T01:15:59.874Z,7.60
2022-09-12T01:18:45.898Z,7.00
2022-09-12T01:21:41.043Z,6.80
2022-09-12T01:24:23.463Z,6.10
2022-09-12T01:27:20.111Z,4.90
2022-09-12T01:30:06.211Z,5.80
2022-09-12T01:33:09.141Z,4.10
2022-09-12T01:35:58.711Z,6.00
2022-09-12T01:41:50.962Z,5.20
2022-09-12T01:44:47.155Z,4.90
2022-09-12T01:47:42.241Z,5.50
2022-09-12T01:50:22.403Z,5.10
2022-09-12T01:53:21.733Z,5.70
2022-09-12T01:56:09.503Z,6.70
2022-09-12T01:58:50.612Z,6.50
2022-09-12T02:01:39.833Z,7.30
2022-09-12T02:04:31.069Z,6.70
2022-09-12T02:07:36.470Z,6.70
2022-09-12T02:10:19.164Z,6.90
2022-09-12T02:13:01.433Z,8.30
2022-09-12T02:15:43.073Z,6.30
2022-09-12T02:18:19.123Z,4.30
2022-09-12T02:20:54.215Z,5.10
2022-09-12T02:23:33.146Z,6.90
2022-09-12T02:26:12.993Z,5.20
2022-09-12T02:28:47.893Z,5.70
2022-09-12T02:31:34.025Z,4.00
2022-09-12T02:34:27.786Z,6.80
2022-09-12T02:37:36.124Z,7.00
2022-09-12T02:40:10.205Z,5.50
2022-09-12T02:42:43.143Z,6.00
2022-09-12T02:45:17.010Z,6.30
2022-09-12T02:48:13.611Z,7.10
2022-09-12T02:50:46.735Z,6.10
2022-09-12T02:53:20.770Z,11.80
2022-09-12T02:55:55.111Z,7.70
2022-09-12T02:58:32.397Z,4.90
2022-09-12T03:01:31.698Z,5.30
2022-09-12T03:04:17.797Z,6.20
2022-09-12T03:07:00.111Z,7.40
2022-09-12T03:09:51.710Z,6.40
2022-09-12T03:12:49.312Z,5.90
2022-09-12T03:15:44.091Z,7.70
2022-09-12T03:18:34.105Z,6.60
2022-09-12T03:21:12.494Z,7.40
2022-09-12T03:23:53.568Z,7.20
2022-09-12T03:26:41.476Z,7.20
2022-09-12T03:29:16.993Z,6.30
2022-09-12T03:32:00.432Z,6.30
2022-09-12T03:34:33.449Z,6.80
2022-09-12T03:37:07.021Z,7.90
2022-09-12T03:39:41.183Z,8.50
2022-09-12T03:42:15.355Z,6.60
2022-09-12T03:44:49.024Z,6.50
2022-09-12T03:47:23.139Z,6.40
2022-09-12T03:49:56.278Z,6.30
2022-09-12T03:52:30.024Z,7.10
2022-09-12T03:55:04.412Z,6.90
2022-09-12T03:57:38.152Z,7.10
2022-09-12T04:00:15.325Z,7.00
2022-09-12T04:02:57.585Z,6.80
2022-09-12T04:05:30.755Z,10.00
2022-09-12T04:08:03.930Z,7.20
2022-09-12T04:10:37.034Z,6.80
2022-09-12T04:13:10.178Z,8.10
2022-09-12T04:15:44.842Z,7.10
2022-09-12T04:18:19.167Z,6.90
2022-09-12T04:20:52.973Z,7.30
2022-09-12T04:23:26.350Z,8.30
2022-09-12T04:26:03.890Z,7.20
2022-09-12T04:28:38.236Z,8.30
2022-09-12T04:31:15.963Z,7.70
2022-09-12T04:33:49.060Z,8.20
2022-09-12T04:36:27.636Z,8.90
2022-09-12T04:39:01.036Z,9.20
2022-09-12T04:41:37.012Z,8.60
2022-09-12T04:44:15.171Z,10.80
2022-09-12T04:46:50.294Z,17.90
2022-09-12T04:49:23.928Z,11.10
2022-09-12T04:51:57.713Z,10.40
2022-09-12T04:54:31.641Z,8.40
2022-09-12T04:57:05.296Z,10.60
2022-09-12T04:59:40.541Z,10.50
2022-09-12T05:02:14.174Z,8.30
2022-09-12T05:04:48.690Z,12.50
2022-09-12T05:07:22.844Z,8.20
2022-09-12T05:09:56.712Z,12.40
2022-09-12T05:12:31.717Z,7.90
2022-09-12T05:15:05.461Z,7.70
2022-09-12T05:17:39.324Z,7.80
2022-09-12T05:20:13.540Z,8.20
2022-09-12T05:22:50.631Z,7.50
2022-09-12T05:25:24.400Z,8.10
2022-09-12T05:27:58.469Z,7.90
2022-09-12T05:30:32.120Z,8.80
2022-09-12T05:33:05.442Z,8.20
2022-09-12T05:35:38.990Z,8.10
2022-09-12T05:38:12.282Z,8.30
2022-09-12T05:40:45.752Z,7.90
2022-09-12T05:43:21.782Z,8.10
2022-09-12T05:45:55.684Z,9.10
2022-09-12T05:48:29.375Z,7.50
2022-09-12T05:51:09.971Z,7.40
2022-09-12T05:53:44.218Z,10.60
2022-09-12T05:56:19.695Z,8.90
2022-09-12T05:58:58.922Z,11.70
2022-09-12T06:01:35.222Z,10.00
2022-09-12T06:04:10.389Z,11.20
2022-09-12T06:06:55.785Z,12.10
2022-09-12T06:09:29.972Z,12.00
2022-09-12T06:12:04.751Z,10.50
2022-09-12T06:14:39.584Z,10.40
2022-09-12T06:17:16.366Z,9.70
2022-09-12T06:19:53.017Z,10.20
2022-09-12T06:22:27.240Z,7.10
2022-09-12T06:25:00.895Z,9.30
2022-09-12T06:27:34.779Z,11.60
2022-09-12T06:30:08.509Z,9.60
2022-09-12T06:32:41.976Z,10.40
2022-09-12T06:35:15.660Z,11.50
2022-09-12T06:37:49.358Z,11.20
2022-09-12T06:40:23.345Z,11.30
2022-09-12T06:42:57.419Z,11.90
2022-09-12T06:45:38.725Z,11.20
2022-09-12T06:48:15.008Z,14.30
2022-09-12T06:50:59.620Z,12.00
2022-09-12T06:53:34.259Z,11.40
2022-09-12T06:56:12.924Z,13.60
2022-09-12T06:58:48.477Z,11.70
2022-09-12T07:01:28.441Z,12.80
2022-09-12T07:04:03.935Z,13.20
2022-09-12T07:06:43.231Z,14.70
2022-09-12T07:09:17.628Z,13.30
2022-09-12T07:11:51.772Z,14.70
2022-09-12T07:14:27.102Z,14.40
2022-09-12T07:17:00.558Z,12.60
2022-09-12T07:19:35.723Z,11.80
2022-09-12T07:22:09.250Z,11.40
2022-09-12T07:24:43.122Z,10.50
2022-09-12T07:27:19.030Z,11.40
2022-09-12T07:29:52.361Z,11.80
2022-09-12T07:32:25.213Z,12.90
2022-09-12T07:34:58.375Z,9.00
2022-09-12T07:37:33.565Z,10.60
2022-09-12T07:40:07.215Z,11.60
2022-09-12T07:42:40.628Z,12.60
2022-09-12T07:45:14.011Z,11.50
2022-09-12T07:47:47.951Z,11.80
2022-09-12T07:50:21.916Z,12.10
2022-09-12T07:52:56.814Z,12.00
2022-09-12T07:55:30.589Z,14.30
2022-09-12T07:58:04.722Z,11.90
2022-09-12T08:00:39.044Z,11.20
2022-09-12T08:03:13.627Z,10.80
2022-09-12T08:05:47.585Z,14.20
2022-09-12T08:08:21.284Z,11.80
2022-09-12T08:11:04.748Z,9.90
2022-09-12T08:13:39.492Z,12.10
2022-09-12T08:16:18.807Z,11.50
2022-09-12T08:18:52.410Z,13.30
2022-09-12T08:21:31.147Z,11.10
2022-09-12T08:24:06.653Z,10.40
2022-09-12T08:26:42.461Z,9.70
2022-09-12T08:29:17.244Z,10.80
2022-09-12T08:31:57.021Z,11.40
2022-09-12T08:34:31.213Z,10.60
2022-09-12T08:37:04.907Z,10.80
2022-09-12T08:39:38.641Z,9.70
2022-09-12T08:42:24.509Z,10.00
2022-09-12T08:45:06.933Z,9.80
2022-09-12T08:50:36.712Z,10.00
2022-09-12T08:53:27.782Z,11.20
2022-09-12T08:56:07.742Z,8.80
2022-09-12T08:58:47.120Z,11.00
2022-09-12T09:01:29.441Z,7.50
2022-09-12T09:04:42.582Z,6.70
2022-09-12T09:07:53.897Z,11.40
2022-09-12T09:10:44.570Z,9.00
2022-09-12T09:13:53.458Z,8.70
2022-09-12T09:16:40.294Z,11.20
2022-09-12T09:19:24.164Z,9.00
2022-09-12T09:22:15.296Z,7.40
2022-09-12T09:25:02.023Z,9.30
2022-09-12T09:27:51.651Z,6.80
2022-09-12T09:30:24.913Z,8.60
2022-09-12T09:33:02.091Z,8.10
2022-09-12T09:36:02.606Z,6.90
2022-09-12T09:38:51.998Z,4.80
2022-09-12T09:41:34.684Z,6.40
2022-09-12T09:46:50.772Z,8.20
2022-09-12T09:49:25.168Z,6.60
2022-09-12T09:52:01.749Z,7.10
2022-09-12T09:54:58.212Z,7.10
2022-09-12T09:57:45.417Z,6.70
2022-09-12T10:00:38.107Z,10.50
2022-09-12T10:03:16.374Z,8.20
2022-09-12T10:05:54.743Z,6.30
2022-09-12T10:08:33.950Z,6.80
2022-09-12T10:11:20.441Z,6.80
2022-09-12T10:14:03.770Z,6.40
2022-09-12T10:16:57.175Z,10.70
2022-09-12T10:19:52.687Z,7.60
2022-09-12T10:22:42.061Z,7.20
2022-09-12T10:25:21.973Z,7.60
2022-09-12T10:28:03.568Z,6.20
2022-09-12T10:33:14.684Z,7.60
2022-09-12T10:35:51.677Z,7.20
2022-09-12T10:38:35.567Z,7.70
2022-09-12T10:41:14.239Z,5.90
2022-09-12T10:43:49.383Z,9.10
2022-09-12T10:46:23.656Z,6.60
2022-09-12T10:49:16.754Z,7.20
2022-09-12T10:51:50.926Z,9.50
2022-09-12T10:54:26.931Z,7.30
2022-09-12T10:57:32.695Z,6.20
2022-09-12T11:00:35.964Z,6.60
2022-09-12T11:03:37.968Z,6.30
2022-09-12T11:06:14.805Z,8.40
2022-09-12T11:09:04.170Z,6.60
2022-09-12T11:11:57.927Z,6.40
2022-09-12T11:14:53.852Z,7.00
2022-09-12T11:17:49.289Z,10.70
2022-09-12T11:20:37.470Z,9.20
2022-09-12T11:23:48.419Z,8.70
2022-09-12T11:26:42.330Z,6.90
2022-09-12T11:29:24.173Z,7.10
2022-09-12T11:32:35.993Z,7.30
2022-09-12T11:35:21.958Z,6.70
2022-09-12T11:38:29.661Z,8.00
2022-09-12T11:41:27.351Z,6.10
2022-09-12T11:44:20.331Z,5.80
2022-09-12T11:46:53.791Z,6.90
2022-09-12T11:49:38.282Z,11.10
2022-09-12T11:52:25.946Z,8.30
2022-09-12T11:55:11.755Z,7.00
2022-09-12T11:57:58.914Z,6.70
2022-09-12T12:00:49.212Z,9.50
2022-09-12T12:03:41.049Z,8.00
2022-09-12T12:06:21.123Z,8.00
2022-09-12T12:08:55.219Z,8.10
2022-09-12T12:11:42.964Z,8.50
2022-09-12T12:14:23.033Z,8.00
2022-09-12T12:16:56.493Z,7.00
2022-09-12T12:19:38.755Z,8.80
2022-09-12T12:22:26.627Z,9.20
2022-09-12T12:25:29.437Z,7.40
2022-09-12T12:28:06.370Z,7.70
2022-09-12T12:30:39.533Z,8.70
2022-09-12T12:33:14.825Z,6.70
2022-09-12T12:36:07.907Z,7.30
2022-09-12T12:38:42.478Z,8.40
2022-09-12T12:41:20.753Z,5.90
2022-09-12T12:43:58.247Z,6.00
2022-09-12T12:46:33.333Z,6.90
2022-09-12T12:49:35.834Z,6.80
2022-09-12T12:52:18.682Z,7.70
2022-09-12T12:54:59.002Z,5.10
2022-09-12T12:57:39.356Z,9.50
2022-09-12T13:00:35.619Z,9.90
2022-09-12T13:03:08.752Z,6.70
2022-09-12T13:05:59.766Z,5.60
2022-09-12T13:08:40.077Z,8.80
2022-09-12T13:11:31.485Z,6.90
2022-09-12T13:14:07.780Z,8.10
2022-09-12T13:16:42.886Z,6.40
2022-09-12T13:19:36.074Z,5.30
2022-09-12T13:22:11.343Z,7.80
2022-09-12T13:24:53.164Z,5.70
2022-09-12T13:27:27.877Z,6.80
2022-09-12T13:30:16.121Z,7.50
2022-09-12T13:32:49.249Z,6.60
2022-09-12T13:35:50.816Z,5.00
2022-09-12T13:38:50.893Z,6.60
2022-09-12T13:42:00.857Z,6.90
2022-09-12T13:44:43.609Z,5.60
2022-09-12T13:47:34.006Z,7.30
2022-09-12T13:50:09.024Z,5.40
2022-09-12T13:52:42.555Z,6.50
2022-09-12T13:55:34.843Z,5.30
2022-09-12T13:58:29.190Z,5.40
2022-09-12T14:01:14.918Z,7.10
2022-09-12T14:04:16.213Z,6.40
2022-09-12T14:06:53.703Z,7.80
2022-09-12T14:09:33.525Z,7.00
2022-09-12T14:12:21.564Z,6.50
2022-09-12T14:14:55.148Z,5.90
2022-09-12T14:17:36.596Z,4.40
2022-09-12T14:20:19.270Z,4.90
2022-09-12T14:22:54.716Z,4.40
2022-09-12T14:25:31.079Z,5.80
2022-09-12T14:28:05.290Z,5.00
2022-09-12T14:30:39.969Z,4.40
2022-09-12T14:33:20.066Z,4.00
2022-09-12T14:36:09.134Z,4.90
2022-09-12T14:38:47.364Z,4.60
2022-09-12T14:41:40.281Z,5.50
2022-09-12T14:44:21.869Z,5.10
2022-09-12T14:46:55.633Z,3.90
2022-09-12T14:49:41.467Z,4.70
2022-09-12T14:52:34.507Z,4.90
2022-09-12T14:55:46.804Z,6.20
2022-09-12T14:58:28.683Z,4.60
2022-09-12T15:01:04.346Z,5.50
2022-09-12T15:03:39.876Z,8.70
2022-09-12T15:06:38.223Z,3.90
2022-09-12T15:09:15.118Z,3.20
2022-09-12T15:11:48.125Z,6.20
2022-09-12T15:14:21.458Z,4.80
2022-09-12T15:16:54.778Z,4.70
2022-09-12T15:19:27.822Z,5.40
2022-09-12T15:22:01.220Z,4.00
2022-09-12T15:24:33.946Z,4.50
2022-09-12T15:27:17.438Z,3.50
2022-09-12T15:29:51.254Z,4.00
2022-09-12T15:32:28.439Z,4.50
2022-09-12T15:35:02.015Z,2.80
2022-09-12T15:37:35.274Z,5.40
2022-09-12T15:40:09.239Z,5.60
2022-09-12T15:42:42.914Z,5.10
2022-09-12T15:45:22.107Z,4.00
2022-09-12T15:47:55.149Z,5.80
2022-09-12T15:50:28.655Z,5.30
2022-09-12T15:53:02.221Z,4.80
2022-09-12T15:55:35.680Z,5.50
2022-09-12T15:58:09.501Z,6.20
2022-09-12T16:00:42.281Z,4.20
2022-09-12T16:03:33.336Z,4.60
2022-09-12T16:06:07.961Z,3.60
2022-09-12T16:08:40.727Z,5.20
2022-09-12T16:11:26.593Z,3.80
2022-09-12T16:13:59.459Z,5.30
2022-09-12T16:16:32.625Z,5.50
2022-09-12T16:19:06.826Z,4.40
2022-09-12T16:21:42.492Z,4.60
2022-09-12T16:24:15.378Z,4.20
2022-09-12T16:26:48.165Z,4.70
2022-09-12T16:29:21.361Z,5.80
2022-09-12T16:31:56.201Z,4.90
2022-09-12T16:34:29.154Z,4.30
2022-09-12T16:37:03.310Z,7.40
2022-09-12T16:39:36.143Z,3.90
2022-09-12T16:42:08.940Z,4.30
2022-09-12T16:44:42.107Z,7.20
2022-09-12T16:47:15.151Z,5.00
2022-09-12T16:49:48.191Z,5.80
2022-09-12T16:52:21.266Z,6.90
2022-09-12T16:54:54.686Z,5.50
2022-09-12T16:57:30.730Z,3.90
2022-09-12T17:00:04.413Z,4.30
2022-09-12T17:02:37.832Z,5.60
2022-09-12T17:05:11.312Z,5.30
2022-09-12T17:07:44.986Z,6.50
2022-09-12T17:10:19.606Z,6.30
2022-09-12T17:12:52.964Z,4.50
2022-09-12T17:15:26.653Z,3.20
2022-09-12T17:18:00.114Z,4.40
2022-09-12T17:20:33.671Z,3.40
2022-09-12T17:23:09.747Z,5.20
2022-09-12T17:25:43.176Z,5.10
2022-09-12T17:28:15.812Z,7.50
2022-09-12T17:30:49.157Z,4.80
2022-09-12T17:33:22.156Z,4.20
2022-09-12T17:35:54.781Z,5.00
2022-09-12T17:38:28.121Z,5.50
2022-09-12T17:41:06.762Z,4.70
2022-09-12T17:43:40.563Z,4.50
2022-09-12T17:46:13.627Z,5.40
2022-09-12T17:48:46.278Z,5.00
2022-09-12T17:51:18.719Z,3.40
2022-09-12T17:53:51.490Z,3.80
2022-09-12T17:56:24.392Z,3.80
2022-09-12T17:58:57.886Z,5.00
2022-09-12T18:01:51.568Z,4.70
2022-09-12T18:04:24.658Z,3.40
2022-09-12T18:06:58.245Z,3.40
2022-09-12T18:09:31.484Z,3.60
2022-09-12T18:12:04.481Z,2.20
2022-09-12T18:14:38.150Z,3.80
2022-09-12T18:17:11.974Z,2.10
2022-09-12T18:19:45.258Z,5.60
2022-09-12T18:22:17.878Z,2.90
2022-09-12T18:24:50.285Z,4.50
2022-09-12T18:27:23.514Z,3.40
2022-09-12T18:30:19.550Z,1.40
2022-09-12T18:32:51.282Z,4.80
2022-09-12T18:35:24.126Z,3.80
2022-09-12T18:37:57.613Z,4.90
2022-09-12T18:40:30.933Z,3.10
2022-09-12T18:43:03.512Z,3.70
2022-09-12T18:45:37.911Z,4.10
2022-09-12T18:48:11.522Z,3.00
2022-09-12T18:50:45.120Z,4.10
2022-09-12T18:53:18.073Z,4.40
2022-09-12T18:55:50.978Z,2.80
2022-09-12T18:58:23.665Z,5.70
2022-09-12T19:00:56.571Z,3.10
2022-09-12T19:03:29.338Z,3.40
2022-09-12T19:06:02.777Z,3.10
2022-09-12T19:08:37.211Z,4.10
2022-09-12T19:11:11.527Z,2.90
2022-09-12T19:13:45.235Z,4.50
2022-09-12T19:16:21.081Z,3.20
2022-09-12T19:18:54.970Z,4.30
2022-09-12T19:21:30.168Z,4.10
2022-09-12T19:24:13.972Z,5.90
2022-09-12T19:26:46.875Z,3.90
2022-09-12T19:29:19.866Z,3.80
2022-09-12T19:31:52.820Z,3.80
2022-09-12T19:34:25.524Z,3.80
2022-09-12T19:36:59.828Z,4.50
2022-09-12T19:39:32.504Z,3.90
2022-09-12T19:42:05.381Z,3.00
2022-09-12T19:44:38.733Z,4.50
2022-09-12T19:47:12.053Z,5.20
2022-09-12T19:49:44.989Z,3.90
2022-09-12T19:52:17.941Z,4.40
2022-09-12T19:54:50.568Z,5.30
2022-09-12T19:57:23.784Z,7.50
2022-09-12T19:59:56.426Z,8.50
2022-09-12T20:02:30.404Z,14.10
2022-09-12T20:05:03.362Z,4.80
2022-09-12T20:07:36.202Z,9.50
2022-09-12T20:10:09.219Z,10.10
2022-09-12T20:12:42.359Z,5.30
2022-09-12T20:15:16.047Z,6.00
2022-09-12T20:17:49.129Z,6.10
2022-09-12T20:20:21.838Z,7.90
2022-09-12T20:22:55.211Z,7.00
2022-09-12T20:25:27.704Z,8.20
2022-09-12T20:28:00.412Z,5.30
2022-09-12T20:30:32.965Z,6.50
2022-09-12T20:33:05.700Z,8.10
2022-09-12T20:35:39.544Z,7.60
2022-09-12T20:38:12.148Z,8.60
2022-09-12T20:40:50.946Z,7.20
2022-09-12T20:43:23.752Z,11.30
2022-09-12T20:45:57.007Z,13.20
2022-09-12T20:48:29.952Z,7.30
2022-09-12T20:51:03.340Z,4.40
2022-09-12T20:53:36.391Z,7.50
2022-09-12T20:56:10.647Z,7.30
2022-09-12T20:58:44.857Z,6.40
2022-09-12T21:01:18.401Z,5.60
2022-09-12T21:03:51.460Z,4.20
2022-09-12T21:06:24.764Z,5.30
2022-09-12T21:09:01.463Z,4.30
2022-09-12T21:11:34.918Z,5.80
2022-09-12T21:14:12.084Z,5.20
2022-09-12T21:16:45.367Z,5.80
2022-09-12T21:19:18.381Z,6.00
2022-09-12T21:21:50.867Z,4.60
2022-09-12T21:24:23.713Z,5.10
2022-09-12T21:26:57.449Z,7.50
2022-09-12T21:29:32.763Z,5.80
2022-09-12T21:32:09.941Z,4.80
2022-09-12T21:34:48.547Z,5.80
2022-09-12T21:37:22.553Z,4.60
2022-09-12T21:39:55.956Z,5.40
2022-09-12T21:42:29.073Z,4.40
2022-09-12T21:45:02.585Z,5.30
2022-09-12T21:47:36.004Z,4.50
2022-09-12T21:50:12.939Z,4.20
2022-09-12T21:52:46.732Z,5.20
2022-09-12T21:55:20.725Z,4.00
2022-09-12T21:57:53.910Z,5.30
2022-09-12T22:00:26.556Z,4.60
2022-09-12T22:02:59.469Z,4.90
2022-09-12T22:05:33.951Z,4.10
2022-09-12T22:08:06.233Z,6.00
2022-09-12T22:10:39.081Z,4.20
2022-09-12T22:13:11.767Z,4.20
2022-09-12T22:15:46.356Z,4.90
2022-09-12T22:18:19.079Z,3.90
2022-09-12T22:20:51.839Z,3.40
2022-09-12T22:23:42.839Z,4.00
2022-09-12T22:26:16.140Z,3.70
2022-09-12T22:28:48.729Z,3.40
2022-09-12T22:31:21.997Z,4.90
2022-09-12T22:33:57.437Z,3.30
2022-09-12T22:36:31.368Z,3.40
2022-09-12T22:39:06.628Z,4.10
2022-09-12T22:41:39.526Z,4.90
2022-09-12T22:44:12.653Z,4.40
2022-09-12T22:46:45.532Z,4.70
2022-09-12T22:49:18.275Z,5.00
2022-09-12T22:51:51.065Z,4.00
2022-09-12T22:54:23.654Z,3.80
2022-09-12T22:56:56.935Z,5.70
2022-09-12T22:59:29.425Z,3.60
2022-09-12T23:02:02.601Z,4.60
2022-09-12T23:08:43.992Z,4.30
2022-09-12T23:11:19.616Z,3.40
2022-09-12T23:13:54.183Z,4.60
2022-09-12T23:16:28.960Z,3.70
2022-09-12T23:19:02.271Z,3.30
2022-09-12T23:21:34.818Z,4.20
2022-09-12T23:24:07.802Z,5.80
2022-09-12T23:26:41.264Z,5.00
2022-09-12T23:29:14.853Z,4.40
2022-09-12T23:31:47.615Z,6.30
2022-09-12T23:34:20.408Z,5.10
2022-09-12T23:36:53.151Z,4.70
2022-09-12T23:39:26.210Z,5.20
2022-09-12T23:41:59.111Z,5.50
2022-09-12T23:44:32.633Z,4.60
2022-09-12T23:47:05.407Z,5.40
2022-09-12T23:49:38.320Z,4.70
2022-09-12T23:52:11.608Z,6.50
2022-09-12T23:54:44.375Z,4.70
2022-09-12T23:57:17.304Z,6.10
2022-09-12T23:59:50.410Z,5.00
